sensor_id;sensor_type;location;lat;lon;timestamp;pressure;altitude;pressure_sealevel;temperature;humidity
71642;BME280;60657;50.122;14.468;2023-03-12T00:00:35;97907.88112543704;;;0.5851834897383057;68.0863660639353
71642;BME280;60657;50.122;14.468;2023-03-12T00:03:47;97909.24002622439;;;0.5130846112764189;68.28282597085527
71642;BME280;60657;50.122;14.468;2023-03-12T00:06:58;97902.80388652792;;;0.5878538185702311;68.46211947814145
71642;BME280;60657;50.122;14.468;2023-03-12T00:10:09;97908.53927226158;;;0.5611505302510125;68.31906614785993
71642;BME280;60657;50.122;14.468;2023-03-12T00:13:20;97910.41960895291;;;0.6359197375448247;68.09208819714657
71642;BME280;60657;50.122;14.468;2023-03-12T00:16:30;97917.0307356989;;;0.5825131609063874;68.15503166247044
71642;BME280;60657;50.122;14.468;2023-03-12T00:19:40;97924.12600641468;;;0.5477988860913996;68.05394064240483
71642;BME280;60657;50.122;14.468;2023-03-12T00:22:51;97924.64919079018;;;0.4890516517891186;68.36293583581292
71642;BME280;60657;50.122;14.468;2023-03-12T00:26:01;97919.92259099269;;;0.5130846112764189;67.97955291065843
71642;BME280;60657;50.122;14.468;2023-03-12T00:29:18;97921.49837159606;;;0.4730296787975874;68.00053406576639
71642;BME280;60657;50.122;14.468;2023-03-12T00:32:28;97919.83453406862;;;0.5264362554360247;67.9108873121233
71642;BME280;60657;50.122;14.468;2023-03-12T00:35:41;97929.68538897991;;;0.521095597772181;67.98718242160678
71642;BME280;60657;50.122;14.468;2023-03-12T00:38:52;97935.01819564182;;;0.3795681696803257;68.66811627374685
71642;BME280;60657;50.122;14.468;2023-03-12T00:42:03;97925.52550385892;;;0.4730296787975874;68.69291218432899
71642;BME280;60657;50.122;14.468;2023-03-12T00:45:14;97931.03765566311;;;0.4222934309910755;69.1621271076524
71642;BME280;60657;50.122;14.468;2023-03-12T00:48:24;97938.3466329449;;;0.43030441748683756;69.19645990691997
71642;BME280;60657;50.122;14.468;2023-03-12T00:51:34;97941.63005474824;;;0.41161211566338807;69.2365148393988
71642;BME280;60657;50.122;14.468;2023-03-12T00:54:44;97935.33192059342;;;0.5077439536125752;69.10490577553979
71642;BME280;60657;50.122;14.468;2023-03-12T00:57:55;97936.99602311585;;;0.48638132295720027;68.91416800183109
71642;BME280;60657;50.122;14.468;2023-03-12T01:01:05;97937.69418457946;;;0.3955901426718569;69.08201724269475
71642;BME280;60657;50.122;14.468;2023-03-12T01:04:15;97940.97778433804;;;0.4196231021591501;69.09727626459144
71642;BME280;60657;50.122;14.468;2023-03-12T01:07:25;97938.39166407223;;;0.42763408865491925;69.20790417334248
71642;BME280;60657;50.122;14.468;2023-03-12T01:10:36;97948.10642801;;;0.3795681696803257;69.2803845273518
71642;BME280;60657;50.122;14.468;2023-03-12T01:13:51;97946.48738570513;;;0.3955901426718569;69.28419928282597
71642;BME280;60657;50.122;14.468;2023-03-12T01:17:01;97961.10341528495;;;0.3475242236972633;69.4863813229572
71642;BME280;60657;50.122;14.468;2023-03-12T01:20:12;97957.35138145491;;;0.44365606164645044;69.33569848172732
71642;BME280;60657;50.122;14.468;2023-03-12T01:23:22;97951.7955232535;;;0.46234836346989994;69.20408941786832
71642;BME280;60657;50.122;14.468;2023-03-12T01:26:32;97949.29905997204;;;0.40894178683146265;69.3547722590982
71642;BME280;60657;50.122;14.468;2023-03-12T01:29:42;97947.63477178005;;;0.44365606164645044;69.26131074998092
71642;BME280;60657;50.122;14.468;2023-03-12T01:32:57;97948.98397359042;;;0.3982604715037752;69.50354772259098
71642;BME280;60657;50.122;14.468;2023-03-12T01:36:13;97946.62298024811;;;0.43030441748683756;69.21171892881667
71642;BME280;60657;50.122;14.468;2023-03-12T01:39:25;97957.0334170883;;;0.35019455252918164;69.53215838864729
71642;BME280;60657;50.122;14.468;2023-03-12T01:42:36;97940.05589214012;;;0.4009308003357006;69.45967803463797
71642;BME280;60657;50.122;14.468;2023-03-12T01:45:56;97944.95865520579;;;0.3982604715037752;69.22888532845045
71642;BME280;60657;50.122;14.468;2023-03-12T01:49:14;97947.41003984686;;;0.3955901426718569;69.14114595254445
71642;BME280;60657;50.122;14.468;2023-03-12T01:52:31;97949.0744051058;;;0.440985732814525;69.17738612954909
71642;BME280;60657;50.122;14.468;2023-03-12T01:55:45;97959.53030485651;;;0.3635461966887945;69.36240177004655
71642;BME280;60657;50.122;14.468;2023-03-12T01:58:57;97955.41452884384;;;0.3421835660334196;69.49591821164263
71642;BME280;60657;50.122;14.468;2023-03-12T02:02:11;97950.37523179167;;;0.3101396200503572;69.73434042877851
71642;BME280;60657;50.122;14.468;2023-03-12T02:05:26;97955.73990511594;;;0.2300297550927013;70.31418326085299
71642;BME280;60657;50.122;14.468;2023-03-12T02:08:44;97964.66290420397;;;0.18997482261386978;70.33707179369803
71642;BME280;60657;50.122;14.468;2023-03-12T02:11:57;97959.06938792703;;;0.18730449378195146;70.03761348897535
71642;BME280;60657;50.122;14.468;2023-03-12T02:15:07;97964.5219861468;;;0.1552605477988891;70.60219729915312
71642;BME280;60657;50.122;14.468;2023-03-12T02:18:18;97962.66796628918;;;0.05912870984970198;70.81963836118105
71642;BME280;60657;50.122;14.468;2023-03-12T02:21:30;97957.02992973017;;;0.11787594415198299;70.71473258564126
71642;BME280;60657;50.122;14.468;2023-03-12T02:24:43;97965.49535264322;;;0.2140077821011701;70.3408865491722
71642;BME280;60657;50.122;14.468;2023-03-12T02:27:59;97963.73658044946;;;0.10986495765621385;70.665140764477
71642;BME280;60657;50.122;14.468;2023-03-12T02:31:14;97959.52724454553;;;0.14190890363927622;70.63271534294651
71642;BME280;60657;50.122;14.468;2023-03-12T02:34:29;97970.11315335556;;;0.12321660181582672;70.84443427176318
71642;BME280;60657;50.122;14.468;2023-03-12T02:37:46;97975.2502860711;;;0.2113374532692447;70.37903410391394
71642;BME280;60657;50.122;14.468;2023-03-12T02:40:57;97979.31863034701;;;0.1579308766308074;70.52018005645839
71642;BME280;60657;50.122;14.468;2023-03-12T02:44:13;97986.38376716469;;;0.1205462729839013;70.84634164950026
71642;BME280;60657;50.122;14.468;2023-03-12T02:47:27;97983.35319817642;;;0.0057221332112646905;71.53299763485161
71642;BME280;60657;50.122;14.468;2023-03-12T02:50:37;97987.76010557603;;;0.06713969634546402;71.24307621881438
71642;BME280;60657;50.122;14.468;2023-03-12T02:53:47;97992.26048497562;;;0.12855725947967045;70.97032120241093
71642;BME280;60657;50.122;14.468;2023-03-12T02:56:58;97995.59132751175;;;0.18463416495002605;70.50682841229877
71642;BME280;60657;50.122;14.468;2023-03-12T03:00:09;97988.52435900213;;;0.26207370107576367;70.4724956130312
71642;BME280;60657;50.122;14.468;2023-03-12T03:03:22;97994.30564584443;;;0.26207370107576367;70.11009384298467
71642;BME280;60657;50.122;14.468;2023-03-12T03:06:32;97996.85069201427;;;0.3047989623865135;70.01281757839322
71642;BME280;60657;50.122;14.468;2023-03-12T03:09:44;97999.48935491306;;;0.36888685435263824;70.00137331197071
71642;BME280;60657;50.122;14.468;2023-03-12T03:12:55;98001.15464995058;;;0.382238498512244;69.79156176089113
71642;BME280;60657;50.122;14.468;2023-03-12T03:16:05;98001.98730367851;;;0.3475242236972633;69.73052567330434
71642;BME280;60657;50.122;14.468;2023-03-12T03:19:16;97998.9359284344;;;0.4009308003357006;69.84306095979248
71642;BME280;60657;50.122;14.468;2023-03-12T03:22:27;98003.19128934294;;;0.4703593499656691;69.34905012588693
71642;BME280;60657;50.122;14.468;2023-03-12T03:25:37;98010.26735581754;;;0.4169527733272318;69.41580834668498
71642;BME280;60657;50.122;14.468;2023-03-12T03:28:47;98007.90922335726;;;0.4703593499656691;69.39864194705119
71642;BME280;60657;50.122;14.468;2023-03-12T03:31:58;98012.07262194768;;;0.4356450751506813;69.3395132372015
71642;BME280;60657;50.122;14.468;2023-03-12T03:35:09;98011.33277464434;;;0.4730296787975874;69.32234683756771
71642;BME280;60657;50.122;14.468;2023-03-12T03:38:19;98009.6674418772;;;0.4703593499656691;69.39864194705119
71642;BME280;60657;50.122;14.468;2023-03-12T03:41:36;98015.26365956369;;;0.440985732814525;69.51499198901351
71642;BME280;60657;50.122;14.468;2023-03-12T03:44:46;98014.2904210033;;;0.3768978408484003;69.74387731746396
71642;BME280;60657;50.122;14.468;2023-03-12T03:47:56;98024.28370275865;;;0.3982604715037752;70.23216601815824
71642;BME280;60657;50.122;14.468;2023-03-12T03:51:07;98022.01875818231;;;0.48104066529335654;70.13679713130388
71642;BME280;60657;50.122;14.468;2023-03-12T03:54:19;98021.0461747934;;;0.44632639047836875;70.11200122072175
71642;BME280;60657;50.122;14.468;2023-03-12T03:57:29;98028.99818011932;;;0.3421835660334196;70.07194628824293
71642;BME280;60657;50.122;14.468;2023-03-12T04:00:40;98033.75814209867;;;0.2700846875715257;70.27412832837415
71642;BME280;60657;50.122;14.468;2023-03-12T04:03:53;98034.49559159459;;;0.3047989623865135;70.28366521705959
71642;BME280;60657;50.122;14.468;2023-03-12T04:07:04;98033.51878110302;;;0.2300297550927013;70.20737010757611
71642;BME280;60657;50.122;14.468;2023-03-12T04:10:14;98049.69574660517;;;0.16060120546273282;70.68230716411078
71642;BME280;60657;50.122;14.468;2023-03-12T04:13:24;98043.56974211245;;;0.08049134050507689;71.05233844510568
71642;BME280;60657;50.122;14.468;2023-03-12T04:16:34;98052.73461593247;;;0.1365682459754325;71.1953917753872
71642;BME280;60657;50.122;14.468;2023-03-12T04:19:45;98055.1357147849;;;0.16594186312657655;71.51010910200657
71642;BME280;60657;50.122;14.468;2023-03-12T04:22:55;98055.18500506078;;;0.14991989013504536;71.54825665674831
71642;BME280;60657;50.122;14.468;2023-03-12T04:26:05;98053.46928121647;;;0.06981002517738943;72.17196917677578
71642;BME280;60657;50.122;14.468;2023-03-12T04:29:16;98041.16875300017;;;0.0644693675135457;72.32074464026856
71642;BME280;60657;50.122;14.468;2023-03-12T04:32:29;98046.60543369876;;;-0.0102998397802736;72.54772259098192
71642;BME280;60657;50.122;14.468;2023-03-12T04:35:45;98056.20453182523;;;-0.11444266422522276;72.78042267490653
71642;BME280;60657;50.122;14.468;2023-03-12T04:38:58;98052.03797878408;;;-0.09308003356984784;72.68886854352635
71642;BME280;60657;50.122;14.468;2023-03-12T04:42:09;98057.03785490162;;;-0.05836575875486716;72.66788738841841
71642;BME280;60657;50.122;14.468;2023-03-12T04:45:23;98054.58816264382;;;-0.0289921416037231;72.55344472419318
71642;BME280;60657;50.122;14.468;2023-03-12T04:48:33;98054.68844818675;;;0.0030518043793392735;72.21774624246586
71642;BME280;60657;50.122;14.468;2023-03-12T04:51:45;98057.13825692981;;;-0.05569542992294174;72.28831921873808
71642;BME280;60657;50.122;14.468;2023-03-12T04:54:55;98057.18833620049;;;0.0057221332112646905;72.09758144502938
71642;BME280;60657;50.122;14.468;2023-03-12T04:58:05;98064.5379495764;;;-0.01831082627603564;72.1223773556115
71642;BME280;60657;50.122;14.468;2023-03-12T05:01:18;98061.88680639498;;;-0.05302510109102343;71.94880598153658
71642;BME280;60657;50.122;14.468;2023-03-12T05:04:32;98068.60430149328;;;-0.002288853284504455;72.23491264209964
71642;BME280;60657;50.122;14.468;2023-03-12T05:07:43;98065.90203329222;;;-0.05302510109102343;72.3150225070573
71642;BME280;60657;50.122;14.468;2023-03-12T05:10:53;98067.36554672438;;;-0.05836575875486716;72.40085450522622
71642;BME280;60657;50.122;14.468;2023-03-12T05:14:04;98074.96850379484;;;-0.11177233539330445;72.48477912565805
71642;BME280;60657;50.122;14.468;2023-03-12T05:17:14;98082.31752201836;;;-0.1384756237125231;72.55153734645609
71642;BME280;60657;50.122;14.468;2023-03-12T05:20:24;98071.43080167391;;;-0.24795910582131597;73.03791866941329
71642;BME280;60657;50.122;14.468;2023-03-12T05:23:35;98082.21548352255;;;-0.18120088502327292;72.82429236285954
71642;BME280;60657;50.122;14.468;2023-03-12T05:26:45;98083.5746273831;;;-0.20256351567864783;72.83764400701915
71642;BME280;60657;50.122;14.468;2023-03-12T05:29:55;98084.66504391699;;;-0.07972838941024207;72.27687495231555
71642;BME280;60657;50.122;14.468;2023-03-12T05:33:06;98081.33078377727;;;-0.1384756237125231;72.505760280766
71642;BME280;60657;50.122;14.468;2023-03-12T05:36:16;98080.29179316215;;;-0.22392614633402275;72.99023422598611
71642;BME280;60657;50.122;14.468;2023-03-12T05:39:28;98084.5625644128;;;-0.15716792553597259;72.7861448081178
71642;BME280;60657;50.122;14.468;2023-03-12T05:42:38;98084.86902930701;;;-0.08239871824216038;72.33409628442817
71642;BME280;60657;50.122;14.468;2023-03-12T05:45:48;98086.53612325493;;;-0.1384756237125231;72.24254215304799
71642;BME280;60657;50.122;14.468;2023-03-12T05:48:59;98087.89695211162;;;-0.15182726787212886;72.31311512932021
71642;BME280;60657;50.122;14.468;2023-03-12T05:52:10;98087.31882474244;;;-0.06103608758678547;72.06706340123598
71642;BME280;60657;50.122;14.468;2023-03-12T05:55:20;98087.52174463612;;;-0.007629510948348184;71.88586251621271
71642;BME280;60657;50.122;14.468;2023-03-12T05:58:31;98086.88986598467;;;0.032425421530483334;71.75616083009079
71642;BME280;60657;50.122;14.468;2023-03-12T06:01:42;98084.68957093393;;;0.18997482261386978;71.28503852903029
71642;BME280;60657;50.122;14.468;2023-03-12T06:04:52;98093.90731476662;;;0.2674143587396074;71.1515220874342
71642;BME280;60657;50.122;14.468;2023-03-12T06:08:03;98086.85010375697;;;0.3395132372014942;71.01037613488975
71642;BME280;60657;50.122;14.468;2023-03-12T06:11:15;98089.49667459332;;;0.4009308003357006;70.77004654001678
71642;BME280;60657;50.122;14.468;2023-03-12T06:14:26;98089.69078906636;;;0.5397878995956376;70.93598840314336
71642;BME280;60657;50.122;14.468;2023-03-12T06:17:36;98082.5897113995;;;0.8388647287708864;69.9727626459144
71642;BME280;60657;50.122;14.468;2023-03-12T06:20:47;98078.83831121009;;;0.9563591973754484;69.5455100328069
71642;BME280;60657;50.122;14.468;2023-03-12T06:23:57;98084.48643092414;;;0.9750514991988979;69.41390096894789
71642;BME280;60657;50.122;14.468;2023-03-12T06:27:09;98076.38495224889;;;0.9616998550392921;69.64469367513543
71642;BME280;60657;50.122;14.468;2023-03-12T06:30:19;98079.98868013304;;;1.0257877470054169;69.5168993667506
71642;BME280;60657;50.122;14.468;2023-03-12T06:33:29;98077.57984715494;;;0.9884031433585108;69.61226825360494
71642;BME280;60657;50.122;14.468;2023-03-12T06:36:41;98084.19844029103;;;1.0151064316777294;69.73052567330434
71642;BME280;60657;50.122;14.468;2023-03-12T06:39:51;98087.30478489918;;;0.9990844586861982;69.85831998168918
71642;BME280;60657;50.122;14.468;2023-03-12T06:43:02;98082.66700632389;;;1.1032272831311545;69.83161669336995
71642;BME280;60657;50.122;14.468;2023-03-12T06:46:14;98098.01427775547;;;1.2046997787441853;69.3700312809949
71642;BME280;60657;50.122;14.468;2023-03-12T06:49:26;98093.58124958164;;;1.3515678644998843;68.89318684672313
71642;BME280;60657;50.122;14.468;2023-03-12T06:52:36;98091.54998105828;;;1.6159304188601524;68.26184481574731
71642;BME280;60657;50.122;14.468;2023-03-12T06:55:48;98091.58178068121;;;2.0698863202868694;67.03730830853742
71642;BME280;60657;50.122;14.468;2023-03-12T06:59:00;98090.51232454287;;;2.336919203479056;66.02639810788129
71642;BME280;60657;50.122;14.468;2023-03-12T07:02:10;98096.64904630205;;;2.2114137483787317;65.4923323414969
71642;BME280;60657;50.122;14.468;2023-03-12T07:05:21;98103.38473176921;;;2.21408407721065;65.36263065537499
71642;BME280;60657;50.122;14.468;2023-03-12T07:08:31;98100.92568126073;;;2.3502708476386687;65.08796826123445
71642;BME280;60657;50.122;14.468;2023-03-12T07:11:42;98103.8315667594;;;2.2674906538490873;65.54955367360952
71642;BME280;60657;50.122;14.468;2023-03-12T07:14:52;98104.74180856216;;;2.2915236133363877;65.51522087434195
71642;BME280;60657;50.122;14.468;2023-03-12T07:18:03;98104.02537719342;;;2.4090180819409497;65.1547264820325
71642;BME280;60657;50.122;14.468;2023-03-12T07:21:15;98103.91084487137;;;2.601281757839324;64.46807049668116
71642;BME280;60657;50.122;14.468;2023-03-12T07:24:25;98100.00673698772;;;2.6653696498054487;64.30975814450294
71642;BME280;60657;50.122;14.468;2023-03-12T07:27:35;98098.3423154621;;;2.742809185931179;64.16479743648432
71642;BME280;60657;50.122;14.468;2023-03-12T07:30:46;98103.1892232951;;;2.601281757839324;64.14953841458762
71642;BME280;60657;50.122;14.468;2023-03-12T07:33:56;98105.50129328294;;;2.622644388494699;64.15907530327306
71642;BME280;60657;50.122;14.468;2023-03-12T07:37:06;98100.80245190988;;;2.7080949111161985;63.722285801480126
71642;BME280;60657;50.122;14.468;2023-03-12T07:40:18;98103.11107663576;;;3.0659189745937283;62.95170519569696
71642;BME280;60657;50.122;14.468;2023-03-12T07:43:28;98115.62778699936;;;3.028534370946822;63.11001754787519
71642;BME280;60657;50.122;14.468;2023-03-12T07:46:39;98105.45939813636;;;3.319600213626309;62.57976653696498
71642;BME280;60657;50.122;14.468;2023-03-12T07:49:49;98105.46772873309;;;3.714808880750745;61.17402914473182
71642;BME280;60657;50.122;14.468;2023-03-12T07:53:00;98088.04724981156;;;4.128709849698637;60.535057602807655
71642;BME280;60657;50.122;14.468;2023-03-12T07:56:10;98095.73067222672;;;4.104676890211337;60.08300907911803
71642;BME280;60657;50.122;14.468;2023-03-12T07:59:21;98091.13224737231;;;4.328984512092774;59.82169832913711
71642;BME280;60657;50.122;14.468;2023-03-12T08:02:32;98085.01240366542;;;4.702830548561835;59.745403219653625
71642;BME280;60657;50.122;14.468;2023-03-12T08:05:43;98086.45903757923;;;4.951171129930572;57.34210727092393
71642;BME280;60657;50.122;14.468;2023-03-12T08:08:53;98081.01085083572;;;5.183489738307777;56.10612649729153
71642;BME280;60657;50.122;14.468;2023-03-12T08:12:04;98079.50374732584;;;5.410467689021132;55.88677805752651
71642;BME280;60657;50.122;14.468;2023-03-12T08:15:15;98078.30113502394;;;5.696192874036775;54.870145723659114
71642;BME280;60657;50.122;14.468;2023-03-12T08:18:25;98071.89177380253;;;5.789654383154037;54.63935301747158
71642;BME280;60657;50.122;14.468;2023-03-12T08:21:36;98074.64009425188;;;6.094071869993137;53.92217898832685
71642;BME280;60657;50.122;14.468;2023-03-12T08:24:46;98074.91422785717;;;6.302357518883042;53.48157473105974
71642;BME280;60657;50.122;14.468;2023-03-12T08:27:57;98076.79642643975;;;6.537346456092166;52.649958037689785
71642;BME280;60657;50.122;14.468;2023-03-12T08:31:07;98078.50173532721;;;6.465247577630272;52.30472266727703
71642;BME280;60657;50.122;14.468;2023-03-12T08:34:18;98071.24935207682;;;6.750972762645915;52.285648889906156
71642;BME280;60657;50.122;14.468;2023-03-12T08:37:28;98070.5143859988;;;6.852445258258946;51.85839627679866
71642;BME280;60657;50.122;14.468;2023-03-12T08:40:38;98070.90593928983;;;7.498664835584037;51.03059433890288
71642;BME280;60657;50.122;14.468;2023-03-12T08:43:49;98058.79236124555;;;7.968642710002285;48.99160753795682
71642;BME280;60657;50.122;14.468;2023-03-12T08:46:59;98053.14244789672;;;8.112840466926073;47.90249485008011
71642;BME280;60657;50.122;14.468;2023-03-12T08:50:11;98054.03815082938;;;8.206301976043335;47.51911192492561
71642;BME280;60657;50.122;14.468;2023-03-12T08:53:23;98056.53767570907;;;8.441290913252459;47.40848401617456
71642;BME280;60657;50.122;14.468;2023-03-12T08:56:35;98062.21232518612;;;8.032730601968417;47.23872739757382
71642;BME280;60657;50.122;14.468;2023-03-12T08:59:46;98059.67235328071;;;7.9179064621957735;47.179598687724116
71642;BME280;60657;50.122;14.468;2023-03-12T09:02:56;98058.79236124555;;;7.8004119935912115;47.29594872968643
71642;BME280;60657;50.122;14.468;2023-03-12T09:06:07;98058.78474000611;;;7.805752651255055;47.01747158007172
71642;BME280;60657;50.122;14.468;2023-03-12T09:09:20;98069.64093372898;;;8.016708628976886;47.299763485160604
71642;BME280;60657;50.122;14.468;2023-03-12T09:12:31;98070.48302367983;;;8.01403830014496;47.01365682459755
71642;BME280;60657;50.122;14.468;2023-03-12T09:15:41;98057.28097334832;;;7.963302052338442;46.36324101625086
71642;BME280;60657;50.122;14.468;2023-03-12T09:18:52;98063.91200320568;;;8.104829480430304;45.9436179140917
71642;BME280;60657;50.122;14.468;2023-03-12T09:22:03;98077.14007628085;;;8.075455863279167;46.54634927901122
71642;BME280;60657;50.122;14.468;2023-03-12T09:25:14;98064.77336557664;;;8.187609674219885;42.21660181582361
71642;BME280;60657;50.122;14.468;2023-03-12T09:28:25;98075.48808474906;;;8.086137178606855;41.32013427939269
71642;BME280;60657;50.122;14.468;2023-03-12T09:31:35;98069.7087022421;;;7.984664682993817;39.90867475394827
71642;BME280;60657;50.122;14.468;2023-03-12T09:34:46;98057.34380009674;;;8.238345922026397;39.90104524299992
71642;BME280;60657;50.122;14.468;2023-03-12T09:37:56;98063.13082639809;;;8.16624704356451;39.50049591821164
71642;BME280;60657;50.122;14.468;2023-03-12T09:41:13;98045.87700318548;;;8.988708323796445;38.245441367208365
71642;BME280;60657;50.122;14.468;2023-03-12T09:44:29;98040.05908643432;;;9.4106202792401;38.068055237659266
71642;BME280;60657;50.122;14.468;2023-03-12T09:47:47;98035.83473674335;;;9.74174105439841;36.528801403830016
71642;BME280;60657;50.122;14.468;2023-03-12T09:51:02;98038.24371090569;;;10.040817883573666;37.41000991836423
71642;BME280;60657;50.122;14.468;2023-03-12T09:54:23;98034.83374243596;;;10.299839780270084;34.95521477073319
71642;BME280;60657;50.122;14.468;2023-03-12T09:57:46;98037.49858374808;;;9.669642175936524;36.116807812619214
71642;BME280;60657;50.122;14.468;2023-03-12T10:00:59;98030.7426173897;;;10.13160906385901;35.93369954985885
71642;BME280;60657;50.122;14.468;2023-03-12T10:04:32;98029.73200843344;;;10.534828717479208;35.622796978713666
71642;BME280;60657;50.122;14.468;2023-03-12T10:07:51;98018.88194097909;;;10.534828717479208;35.462577248798354
71642;BME280;60657;50.122;14.468;2023-03-12T10:11:11;98004.42804664986;;;10.962081330586706;36.025253681239036
71642;BME280;60657;50.122;14.468;2023-03-12T10:14:40;97999.36780162451;;;10.986114290074006;34.74921797512779
71642;BME280;60657;50.122;14.468;2023-03-12T10:18:07;97998.5411951867;;;11.191729610131993;33.885175860227356
71642;BME280;60657;50.122;14.468;2023-03-12T10:21:32;97991.62674801711;;;11.445410849164567;33.93667505912871
71642;BME280;60657;50.122;14.468;2023-03-12T10:24:55;97988.82149558695;;;11.635004196231023;33.13176165407798
71642;BME280;60657;50.122;14.468;2023-03-12T10:28:21;98000.81830842658;;;11.258487830930036;33.77454795147631
71642;BME280;60657;50.122;14.468;2023-03-12T10:31:42;97989.08843016053;;;11.429388876173036;34.081635767147326
71642;BME280;60657;50.122;14.468;2023-03-12T10:35:03;97993.89190751998;;;11.653696498054472;34.15411612115663
71642;BME280;60657;50.122;14.468;2023-03-12T10:38:24;97991.47588823421;;;11.52018005645838;33.4960708018616
71642;BME280;60657;50.122;14.468;2023-03-12T10:41:40;97987.39052963103;;;11.357289997711149;33.621957732509344
71642;BME280;60657;50.122;14.468;2023-03-12T10:44:53;97985.827570146;;;11.317235065232317;33.8203250171664
71642;BME280;60657;50.122;14.468;2023-03-12T10:48:09;97972.42600239995;;;11.445410849164567;34.98954757000076
71642;BME280;60657;50.122;14.468;2023-03-12T10:51:27;97974.50724643895;;;11.023498893720912;34.60616464484627
71642;BME280;60657;50.122;14.468;2023-03-12T10:54:38;97973.86621913651;;;10.468070496681165;35.12878614480812
71642;BME280;60657;50.122;14.468;2023-03-12T10:57:51;97979.18757622965;;;11.39200427252613;34.21705958648051
71642;BME280;60657;50.122;14.468;2023-03-12T11:01:03;97970.14223188153;;;11.026169222552838;34.89990081635767
71642;BME280;60657;50.122;14.468;2023-03-12T11:04:16;97971.92129211301;;;11.042191195544369;34.96284428168154
71642;BME280;60657;50.122;14.468;2023-03-12T11:07:34;97966.38390468164;;;11.610971236743723;34.70725566491188
71642;BME280;60657;50.122;14.468;2023-03-12T11:10:45;97954.2208914084;;;12.078278782330052;34.939955748836496
71642;BME280;60657;50.122;14.468;2023-03-12T11:14:04;97940.36718725672;;;12.473487449454488;33.80697337300679
71642;BME280;60657;50.122;14.468;2023-03-12T11:17:19;97948.8166849044;;;12.323949034866864;33.97291523613336
71642;BME280;60657;50.122;14.468;2023-03-12T11:20:33;97947.59626926495;;;11.648355840390629;35.61898222323949
71642;BME280;60657;50.122;14.468;2023-03-12T11:23:45;97954.57740043456;;;11.56023498893721;34.24185549706264
71642;BME280;60657;50.122;14.468;2023-03-12T11:27:15;97950.37604192359;;;11.771190966659034;34.01106279087511
71642;BME280;60657;50.122;14.468;2023-03-12T11:30:39;97946.11774897075;;;11.805905241474022;35.546501869230184
71642;BME280;60657;50.122;14.468;2023-03-12T11:33:50;97936.43572272509;;;12.267872129396508;33.475089646753645